Time;durP1;ratioP1;P1;durP2;ratioP2;P2;SDS_P1;SDS_P2;PMS_P1;PMS_P2;Temp;Humidity;BMP_temperature;BMP_pressure;BME280_temperature;BME280_humidity;BME280_pressure;Samples;Min_cycle;Max_cycle;Signal;HPM_P1;HPM_P2
2023/06/15 00:00:57;;;;;;;0.40;0.40;;;21.70;53.20;;;22.18;37.84;94929.50;5012108;28;20579;-41
2023/06/15 00:03:25;;;;;;;0.40;0.40;;;21.70;53.20;;;22.16;37.76;94929.78;5012242;28;20538;-42
2023/06/15 00:05:53;;;;;;;0.43;0.43;;;21.70;53.30;;;22.14;38.05;94928.44;5027408;28;20198;-46
2023/06/15 00:08:20;;;;;;;0.40;0.40;;;21.70;53.40;;;22.12;37.97;94923.38;5011264;28;20201;-43
2023/06/15 00:10:47;;;;;;;0.40;0.40;;;21.70;53.40;;;22.11;38.13;94929.78;5012411;28;20302;-44
2023/06/15 00:13:15;;;;;;;0.40;0.40;;;21.70;53.40;;;22.10;38.20;94930.84;5012145;28;20212;-42
2023/06/15 00:15:42;;;;;;;0.40;0.40;;;21.70;53.50;;;22.07;37.67;94928.72;5011979;28;20288;-41
2023/06/15 00:18:11;;;;;;;0.40;0.40;;;21.60;53.40;;;22.06;37.68;94925.22;5012290;28;20207;-41
2023/06/15 00:20:39;;;;;;;0.40;0.40;;;21.60;53.40;;;22.04;38.04;94926.53;5011980;28;20667;-40
2023/06/15 00:23:08;;;;;;;0.32;0.32;;;21.60;53.50;;;22.02;37.71;94926.00;5012128;28;20305;-41
2023/06/15 00:25:36;;;;;;;0.40;0.40;;;21.60;53.50;;;21.99;38.24;94922.00;5026988;28;20202;-40
2023/06/15 00:28:04;;;;;;;0.40;0.40;;;21.60;53.50;;;21.97;37.75;94928.66;5011967;28;20652;-41
2023/06/15 00:30:31;;;;;;;0.40;0.40;;;21.50;53.30;;;21.95;37.75;94931.59;5011893;28;20298;-41
2023/06/15 00:32:58;;;;;;;0.43;0.43;;;21.50;53.40;;;21.93;37.74;94933.72;5027393;28;20652;-41
2023/06/15 00:35:26;;;;;;;0.40;0.40;;;21.50;53.50;;;21.89;38.11;94932.66;5011719;28;20201;-41
2023/06/15 00:37:54;;;;;;;0.40;0.40;;;21.50;54.80;;;21.89;38.52;94936.13;5010880;28;20213;-41
2023/06/15 00:40:21;;;;;;;0.40;0.40;;;21.50;53.50;;;21.88;38.20;94928.38;5012219;28;20292;-41
2023/06/15 00:42:48;;;;;;;0.43;0.43;;;21.50;53.50;;;21.84;38.25;94925.44;5011750;28;20192;-41
2023/06/15 00:45:16;;;;;;;0.50;0.50;;;21.50;53.60;;;21.83;38.00;94929.16;5010648;28;20617;-41
2023/06/15 00:47:45;;;;;;;0.40;0.40;;;21.40;53.60;;;21.81;37.87;94931.28;5010773;28;20203;-41
2023/06/15 00:50:19;;;;;;;0.40;0.40;;;21.40;53.70;;;21.80;38.49;94924.38;5011716;28;20500;-42
2023/06/15 00:52:49;;;;;;;0.43;0.43;;;21.40;53.60;;;21.76;37.78;94920.59;5027283;28;20256;-42
2023/06/15 00:55:17;;;;;;;0.40;0.40;;;21.40;53.60;;;21.74;38.42;94926.19;5026933;28;20202;-42
2023/06/15 00:57:49;;;;;;;0.40;0.40;;;21.40;53.70;;;21.70;38.00;94921.66;5011866;28;20311;-41
2023/06/15 01:00:18;;;;;;;0.40;0.40;;;21.30;53.60;;;21.70;38.43;94921.66;5014359;28;20192;-41
2023/06/15 01:02:48;;;;;;;0.50;0.50;;;21.30;53.60;;;21.67;38.40;94917.63;5015146;28;20308;-41
2023/06/15 01:05:17;;;;;;;0.40;0.40;;;21.30;53.70;;;21.65;38.56;94917.09;5015003;28;20189;-41
2023/06/15 01:07:47;;;;;;;0.43;0.43;;;21.30;55.00;;;21.63;38.36;94910.41;5014848;28;20205;-41
2023/06/15 01:10:23;;;;;;;0.40;0.40;;;21.30;53.80;;;21.61;38.30;94910.69;5014791;28;20535;-42
2023/06/15 01:12:54;;;;;;;0.45;0.45;;;21.30;55.20;;;21.58;38.67;94906.66;5015157;28;20190;-41
2023/06/15 01:15:24;;;;;;;0.50;0.50;;;21.20;53.80;;;21.57;38.24;94909.59;5014067;28;20201;-42
2023/06/15 01:17:58;;;;;;;0.40;0.40;;;21.20;53.80;;;21.54;38.08;94913.53;5014702;28;20202;-42
2023/06/15 01:20:39;;;;;;;0.40;0.40;;;21.20;53.90;;;21.52;38.61;94920.19;5013683;28;20235;-41
2023/06/15 01:23:28;;;;;;;0.40;0.40;;;21.20;54.00;;;21.49;38.30;94916.19;5014593;28;20243;-42
2023/06/15 01:26:24;;;;;;;0.50;0.50;;;21.10;53.80;;;21.45;38.29;94915.13;4997593;28;20253;-42
2023/06/15 01:28:52;;;;;;;0.35;0.35;;;21.10;53.80;;;21.45;38.44;94915.13;5011422;28;20196;-43
2023/06/15 01:31:20;;;;;;;0.40;0.40;;;21.10;53.80;;;21.43;38.62;94912.72;5013551;28;20238;-42
2023/06/15 01:33:51;;;;;;;0.40;0.40;;;21.10;53.90;;;21.42;38.54;94915.63;5013757;28;20257;-42
2023/06/15 01:36:19;;;;;;;0.40;0.40;;;21.10;54.00;;;21.41;38.75;94911.34;5014691;28;20190;-42
2023/06/15 01:38:53;;;;;;;0.50;0.50;;;21.10;53.90;;;21.39;38.67;94914.28;5014249;28;20276;-43
2023/06/15 01:41:23;;;;;;;0.40;0.40;;;21.00;53.90;;;21.37;38.25;94907.59;5029803;28;20239;-43
2023/06/15 01:43:51;;;;;;;0.40;0.40;;;21.00;54.00;;;21.36;38.49;94906.00;5013800;28;20273;-44
2023/06/15 01:46:21;;;;;;;0.50;0.50;;;21.00;53.90;;;21.34;38.71;94900.94;5029697;28;20299;-44
2023/06/15 01:48:50;;;;;;;0.40;0.40;;;21.00;54.00;;;21.32;38.49;94896.91;5014575;28;20193;-43
2023/06/15 01:51:17;;;;;;;0.40;0.40;;;21.00;54.00;;;21.30;38.56;94899.03;5013409;28;20207;-42
2023/06/15 01:53:45;;;;;;;0.43;0.43;;;21.00;54.00;;;21.28;38.39;94901.97;5013859;28;20199;-42
2023/06/15 01:56:14;;;;;;;0.40;0.40;;;21.00;54.10;;;21.26;38.81;94893.41;5014199;28;20205;-44
2023/06/15 01:58:41;;;;;;;0.40;0.40;;;20.90;54.00;;;21.24;38.44;94899.03;5029623;28;20207;-44
2023/06/15 02:01:08;;;;;;;0.50;0.50;;;20.90;54.00;;;21.23;38.90;94893.94;5013061;28;20254;-44
2023/06/15 02:03:35;;;;;;;0.40;0.40;;;20.90;54.00;;;21.22;38.59;94901.13;5014024;28;20231;-44
2023/06/15 02:06:08;;;;;;;0.40;0.40;;;20.90;54.10;;;21.20;38.96;94889.94;5013671;28;20299;-42
2023/06/15 02:08:36;;;;;;;0.40;0.40;;;20.80;54.10;;;21.18;39.02;94896.56;5013228;28;20240;-41
2023/06/15 02:11:03;;;;;;;0.50;0.50;;;20.80;54.00;;;21.18;38.99;94901.91;5013804;28;20189;-42
2023/06/15 02:13:30;;;;;;;0.40;0.40;;;20.80;54.20;;;21.16;38.67;94904.84;5029361;28;20204;-42
2023/06/15 02:15:57;;;;;;;0.40;0.40;;;20.80;54.10;;;21.15;38.99;94899.78;5013661;28;20323;-42
2023/06/15 02:18:29;;;;;;;0.40;0.40;;;20.80;54.10;;;21.13;38.88;94897.38;5029334;28;20212;-42
2023/06/15 02:20:57;;;;;;;0.40;0.40;;;20.80;54.20;;;21.12;38.83;94903.75;5013966;28;20216;-42
2023/06/15 02:23:24;;;;;;;0.40;0.40;;;20.80;54.20;;;21.10;39.09;94904.03;5013667;28;20254;-41
2023/06/15 02:25:52;;;;;;;0.40;0.40;;;20.80;54.20;;;21.08;38.69;94900.81;5028961;28;20204;-41
2023/06/15 02:28:19;;;;;;;0.38;0.38;;;20.70;54.10;;;21.08;38.70;94899.97;5013629;28;20286;-42
2023/06/15 02:30:46;;;;;;;0.40;0.40;;;20.70;54.10;;;21.07;38.78;94901.06;5013577;28;20272;-43
2023/06/15 02:33:13;;;;;;;0.40;0.40;;;20.70;54.20;;;21.04;39.24;94907.69;5013846;28;20197;-43
2023/06/15 02:35:40;;;;;;;0.40;0.40;;;20.70;54.20;;;21.03;38.98;94906.13;5028994;28;20531;-42
2023/06/15 02:38:07;;;;;;;0.50;0.50;;;20.70;54.30;;;21.03;39.20;94905.28;5012489;28;20253;-43
2023/06/15 02:40:35;;;;;;;0.40;0.40;;;20.70;54.30;;;21.01;39.24;94916.22;5028893;28;20233;-42
2023/06/15 02:43:03;;;;;;;0.50;0.50;;;20.70;54.30;;;20.99;38.80;94910.34;5028689;28;20296;-42
2023/06/15 02:45:33;;;;;;;0.40;0.40;;;20.70;54.40;;;20.97;39.15;94907.16;5012630;28;20201;-43
2023/06/15 02:48:01;;;;;;;0.50;0.50;;;20.60;54.30;;;20.95;39.19;94919.94;5012378;28;20204;-42
2023/06/15 02:50:29;;;;;;;0.70;0.70;;;20.60;55.70;;;20.94;39.20;94916.44;5012371;28;20302;-42
2023/06/15 02:53:08;;;;;;;0.40;0.40;;;20.60;54.40;;;20.93;39.13;94914.03;5029308;28;20199;-43
2023/06/15 02:55:37;;;;;;;0.40;0.40;;;20.60;54.30;;;20.90;38.95;94914.56;5012257;28;20227;-42
2023/06/15 02:58:05;;;;;;;0.40;0.40;;;20.60;54.40;;;20.87;39.19;94917.72;5028674;28;20283;-42
2023/06/15 03:00:51;;;;;;;0.50;0.50;;;20.60;54.30;;;20.82;38.89;94923.81;5013365;28;20272;-42
2023/06/15 03:03:29;;;;;;;0.40;0.40;;;20.50;54.20;;;20.77;39.26;94915.81;5012267;28;20191;-42
2023/06/15 03:05:59;;;;;;;0.50;0.50;;;20.50;54.40;;;20.74;39.40;94919.78;5012141;28;20629;-42
2023/06/15 03:08:31;;;;;;;0.40;0.40;;;20.50;54.40;;;20.71;39.31;94917.59;5012438;28;20290;-42
2023/06/15 03:11:19;;;;;;;0.40;0.40;;;20.40;54.40;;;20.71;39.27;94920.25;5012696;28;20553;-43
2023/06/15 03:13:47;;;;;;;0.40;0.40;;;20.40;54.50;;;20.69;39.14;94922.38;5012856;28;20232;-42
2023/06/15 03:16:15;;;;;;;0.50;0.50;;;20.40;54.50;;;20.68;39.05;94927.94;5012935;28;20198;-42
2023/06/15 03:18:45;;;;;;;0.40;0.40;;;20.40;54.60;;;20.64;39.55;94923.16;5012841;28;20587;-42
2023/06/15 03:21:14;;;;;;;0.47;0.47;;;20.40;54.60;;;20.62;39.60;94922.59;5011414;28;20223;-45
2023/06/15 03:23:42;;;;;;;0.60;0.60;;;20.30;54.60;;;20.59;39.11;94920.44;5012860;28;20231;-42
2023/06/15 03:26:10;;;;;;;0.60;0.60;;;20.30;54.60;;;20.58;39.32;94924.16;5011800;28;20258;-42
2023/06/15 03:28:38;;;;;;;0.50;0.50;;;20.30;54.80;;;20.57;39.19;94930.56;5012625;28;20255;-43
2023/06/15 03:31:10;;;;;;;0.50;0.50;;;20.30;54.90;;;20.57;39.24;94933.22;5012037;28;20260;-44
2023/06/15 03:33:37;;;;;;;0.40;0.40;;;20.20;54.90;;;20.54;39.90;94931.03;5012637;28;20267;-44
2023/06/15 03:36:04;;;;;;;0.40;0.40;;;20.20;54.90;;;20.55;40.00;94930.00;5012078;28;20204;-45
2023/06/15 03:38:34;;;;;;;0.40;0.40;;;20.20;55.00;;;20.55;39.38;94930.00;5011463;28;20279;-42
2023/06/15 03:41:01;;;;;;;0.40;0.40;;;20.20;55.00;;;20.54;40.00;94935.59;5012772;28;20277;-44
2023/06/15 03:43:29;;;;;;;0.45;0.45;;;20.20;55.10;;;20.54;39.78;94938.25;5011560;28;20214;-44
2023/06/15 03:45:56;;;;;;;0.50;0.50;;;20.20;55.10;;;20.52;40.13;94940.34;5028293;28;20196;-43
2023/06/15 03:48:24;;;;;;;0.40;0.40;;;20.20;55.10;;;20.50;39.77;94937.94;5011400;28;20211;-43
2023/06/15 03:50:51;;;;;;;0.40;0.40;;;20.20;55.10;;;20.48;39.77;94943.53;5011477;28;20203;-42
2023/06/15 03:53:18;;;;;;;0.40;0.40;;;20.20;55.10;;;20.48;39.67;94948.88;5011451;28;20205;-46
2023/06/15 03:55:46;;;;;;;0.30;0.30;;;20.20;55.20;;;20.49;39.59;94944.34;5027898;28;20295;-43
2023/06/15 03:58:14;;;;;;;0.40;0.40;;;20.20;55.20;;;20.48;40.18;94953.38;5027721;28;20197;-41
2023/06/15 04:00:43;;;;;;;0.40;0.40;;;20.20;55.30;;;20.47;39.67;94944.59;5011600;28;20207;-42
2023/06/15 04:03:10;;;;;;;0.40;0.40;;;20.20;56.60;;;20.48;40.18;94948.06;5028525;28;20221;-42
2023/06/15 04:05:39;;;;;;;0.40;0.40;;;20.20;55.40;;;20.47;40.30;94947.25;5011251;28;20541;-42
2023/06/15 04:08:08;;;;;;;0.43;0.43;;;20.20;55.40;;;20.47;39.84;94951.78;5011943;28;20203;-42
2023/06/15 04:10:35;;;;;;;0.40;0.40;;;20.20;55.50;;;20.48;40.06;94953.38;5027676;28;20195;-42
2023/06/15 04:13:05;;;;;;;0.43;0.43;;;20.20;55.50;;;20.48;39.83;94961.38;5012359;28;20215;-42
2023/06/15 04:15:32;;;;;;;0.40;0.40;;;20.20;55.60;;;20.48;40.09;94959.53;5012154;28;20193;-42
2023/06/15 04:18:00;;;;;;;0.40;0.40;;;20.20;55.70;;;20.47;40.46;94957.91;5011197;28;20262;-42
2023/06/15 04:20:30;;;;;;;0.40;0.40;;;20.20;55.70;;;20.47;40.66;94963.25;5010970;28;20231;-42
2023/06/15 04:22:59;;;;;;;0.45;0.45;;;20.20;55.70;;;20.47;40.60;94965.91;5011230;28;20240;-41
2023/06/15 04:25:27;;;;;;;0.40;0.40;;;20.20;55.80;;;20.48;40.43;94972.03;5011078;28;20680;-42
2023/06/15 04:27:55;;;;;;;0.43;0.43;;;20.20;55.90;;;20.45;40.48;94957.34;5027573;28;20199;-42
2023/06/15 04:30:26;;;;;;;0.47;0.47;;;20.20;56.00;;;20.46;40.37;94969.63;5010866;28;20756;-42
2023/06/15 04:33:04;;;;;;;0.50;0.50;;;20.20;56.00;;;20.42;40.54;94960.53;5029163;28;20241;-42
2023/06/15 04:35:34;;;;;;;0.47;0.47;;;20.20;56.00;;;20.44;40.83;94968.28;5030895;28;20658;-46
2023/06/15 04:38:06;;;;;;;0.50;0.50;;;20.20;56.10;;;20.45;40.69;94969.88;5014394;28;20214;-42
2023/06/15 04:40:33;;;;;;;0.50;0.50;;;20.20;56.10;;;20.43;40.82;94978.13;5015174;28;20207;-42
2023/06/15 04:43:02;;;;;;;0.50;0.50;;;20.20;56.10;;;20.44;40.80;94984.25;5015414;28;20219;-42
2023/06/15 04:45:30;;;;;;;0.35;0.35;;;20.20;56.20;;;20.46;40.98;94971.50;5014459;28;20202;-42
2023/06/15 04:47:58;;;;;;;0.40;0.40;;;20.20;56.30;;;20.45;40.92;94969.88;5014809;28;20587;-41
2023/06/15 04:50:25;;;;;;;0.52;0.52;;;20.20;56.40;;;20.44;40.73;94976.25;5015043;28;20225;-42
2023/06/15 04:52:53;;;;;;;0.50;0.50;;;20.20;56.40;;;20.43;40.74;94969.31;5030409;28;20208;-42
2023/06/15 04:55:20;;;;;;;0.40;0.40;;;20.20;56.40;;;20.43;41.02;94966.66;5015076;28;20211;-42
2023/06/15 04:57:48;;;;;;;0.50;0.50;;;20.20;56.40;;;20.43;41.26;94974.66;5030551;28;20207;-42
2023/06/15 05:00:16;;;;;;;0.40;0.40;;;20.20;56.40;;;20.43;41.26;94964.00;5030471;28;20301;-42
2023/06/15 05:02:49;;;;;;;0.30;0.30;;;20.20;56.40;;;20.43;41.26;94964.81;5013799;28;20213;-42
2023/06/15 05:05:17;;;;;;;0.35;0.35;;;20.30;56.60;;;20.45;41.13;94961.91;5014963;28;20196;-42
2023/06/15 05:07:44;;;;;;;0.50;0.50;;;20.30;56.70;;;20.47;40.90;94971.25;5013916;28;20560;-42
2023/06/15 05:10:12;;;;;;;0.43;0.43;;;20.30;56.80;;;20.48;41.55;94969.38;5014824;28;20182;-43
2023/06/15 05:12:39;;;;;;;0.40;0.40;;;20.30;56.80;;;20.49;41.51;94976.31;5031356;28;20203;-42
2023/06/15 05:15:09;;;;;;;0.40;0.40;;;20.30;56.80;;;20.50;41.52;94977.91;5013994;28;20204;-42
2023/06/15 05:17:36;;;;;;;0.40;0.40;;;20.30;56.90;;;20.51;41.10;94981.38;5030247;28;20197;-42
2023/06/15 05:20:05;;;;;;;0.43;0.43;;;20.30;56.90;;;20.54;41.82;94983.53;5013847;28;20624;-42
2023/06/15 05:22:33;;;;;;;0.45;0.45;;;20.30;57.10;;;20.53;41.36;94985.41;5030070;28;20330;-42
2023/06/15 05:25:00;;;;;;;0.30;0.30;;;20.30;57.10;;;20.56;41.51;94992.09;5014607;28;20189;-43
2023/06/15 05:27:28;;;;;;;0.45;0.45;;;20.30;57.20;;;20.53;42.04;94989.94;5013627;28;20250;-42
2023/06/15 05:29:56;;;;;;;0.50;0.50;;;20.40;57.30;;;20.57;41.97;94997.16;5013436;28;20204;-42
2023/06/15 05:32:23;;;;;;;0.40;0.40;;;20.40;57.30;;;20.59;41.70;94994.25;5030021;28;20246;-43
2023/06/15 05:34:51;;;;;;;0.40;0.40;;;20.40;57.30;;;20.61;41.84;94995.59;5013503;28;20207;-42
2023/06/15 05:37:18;;;;;;;0.47;0.47;;;20.40;57.40;;;20.62;41.71;94996.41;5013460;28;20208;-42
2023/06/15 05:39:46;;;;;;;0.40;0.40;;;20.40;57.30;;;20.64;41.79;94995.09;5029753;28;20256;-44
2023/06/15 05:42:13;;;;;;;0.50;0.50;;;20.50;57.50;;;20.65;41.72;94990.56;5013356;28;20253;-41
2023/06/15 05:44:43;;;;;;;0.50;0.50;;;20.50;57.60;;;20.67;41.80;94991.13;5013358;28;20212;-43
2023/06/15 05:47:10;;;;;;;0.50;0.50;;;20.50;57.60;;;20.69;41.78;94991.69;5029876;28;20238;-42
2023/06/15 05:49:41;;;;;;;0.30;0.30;;;20.50;57.60;;;20.71;42.00;94994.09;5013195;28;20197;-42
2023/06/15 05:52:12;;;;;;;0.50;0.50;;;20.50;57.50;;;20.72;41.93;94993.06;5013290;28;20661;-41
2023/06/15 05:54:40;;;;;;;0.40;0.40;;;20.50;57.50;;;20.73;42.01;95003.47;5013208;28;20269;-42
2023/06/15 05:57:09;;;;;;;0.40;0.40;;;20.60;57.70;;;20.75;42.18;95001.34;5013177;28;20213;-41
2023/06/15 05:59:37;;;;;;;0.40;0.40;;;20.60;57.70;;;20.77;42.40;95001.88;5029555;28;20205;-42
2023/06/15 06:02:05;;;;;;;0.40;0.40;;;20.60;57.70;;;20.79;42.03;95007.00;5014161;28;20220;-41
2023/06/15 06:04:36;;;;;;;0.43;0.43;;;20.60;57.80;;;20.81;42.14;95002.19;5012927;28;20618;-42
2023/06/15 06:07:05;;;;;;;0.40;0.40;;;20.60;57.80;;;20.82;42.39;95000.34;5014242;28;20392;-41
2023/06/15 06:09:35;;;;;;;0.30;0.30;;;20.60;57.80;;;20.86;42.60;95012.09;5013036;28;20590;-42
2023/06/15 06:12:02;;;;;;;0.40;0.40;;;20.70;57.90;;;20.87;41.91;95016.38;5029226;28;20209;-42
2023/06/15 06:14:29;;;;;;;0.40;0.40;;;20.70;57.90;;;20.88;42.07;95010.78;5012907;28;20201;-41
2023/06/15 06:16:56;;;;;;;0.40;0.40;;;20.70;58.00;;;20.90;42.16;95013.22;5014154;28;20296;-41
2023/06/15 06:19:24;;;;;;;0.50;0.50;;;20.70;57.80;;;20.91;42.33;95015.63;5012869;28;20204;-41
2023/06/15 06:21:52;;;;;;;0.70;0.70;;;20.70;59.20;;;20.92;42.43;95011.91;5012519;28;20204;-41
2023/06/15 06:24:19;;;;;;;0.40;0.40;;;20.80;58.00;;;20.95;42.50;95019.38;5013206;28;20206;-42
2023/06/15 06:26:51;;;;;;;0.40;0.40;;;20.80;57.90;;;20.98;41.98;95017.25;5029435;28;20640;-42
2023/06/15 06:29:18;;;;;;;0.32;0.32;;;20.80;57.90;;;20.99;42.44;95016.22;5013105;28;20196;-42
2023/06/15 06:31:45;;;;;;;0.50;0.50;;;20.80;58.00;;;21.02;42.05;95021.84;5013607;28;20232;-44
2023/06/15 06:34:12;;;;;;;0.40;0.40;;;20.80;57.90;;;21.04;42.14;95013.56;5013890;28;20196;-42
2023/06/15 06:36:40;;;;;;;0.43;0.43;;;20.90;58.10;;;21.05;42.19;95018.66;5013518;28;20201;-43
2023/06/15 06:39:07;;;;;;;0.40;0.40;;;20.90;58.00;;;21.07;42.75;95013.06;5013537;28;20202;-42
2023/06/15 06:41:34;;;;;;;0.43;0.43;;;20.90;58.00;;;21.09;42.65;95024.28;5012832;28;20293;-42
2023/06/15 06:44:01;;;;;;;0.40;0.40;;;20.90;58.00;;;21.12;42.18;95013.09;5013338;28;20219;-42
2023/06/15 06:46:28;;;;;;;0.40;0.40;;;21.00;58.10;;;21.13;42.69;95017.38;5013353;28;20194;-42
2023/06/15 06:48:55;;;;;;;0.43;0.43;;;21.00;58.00;;;21.15;42.23;95012.56;5013376;28;20199;-42
2023/06/15 06:51:22;;;;;;;0.40;0.40;;;21.00;58.00;;;21.17;42.64;95017.69;5013251;28;20193;-42
2023/06/15 06:53:50;;;;;;;0.40;0.40;;;21.00;58.10;;;21.19;42.27;95013.69;5013555;28;20209;-42
2023/06/15 06:56:17;;;;;;;0.40;0.40;;;21.00;58.10;;;21.22;42.62;95023.03;5012660;28;20229;-42
2023/06/15 06:58:44;;;;;;;0.30;0.30;;;21.10;58.10;;;21.22;42.69;95015.84;5013250;28;20193;-43
2023/06/15 07:01:11;;;;;;;0.50;0.50;;;21.10;58.10;;;21.25;42.10;95014.50;5013690;28;20288;-43
2023/06/15 07:03:39;;;;;;;0.30;0.30;;;21.10;58.10;;;21.27;42.21;95018.53;5013017;28;20230;-43
2023/06/15 07:06:06;;;;;;;0.40;0.40;;;21.10;58.10;;;21.29;42.62;95012.97;5013115;28;20194;-42
2023/06/15 07:08:33;;;;;;;0.30;0.30;;;21.10;58.10;;;21.31;42.71;95015.38;5012982;28;20628;-42
2023/06/15 07:11:02;;;;;;;0.40;0.40;;;21.10;58.00;;;21.33;42.28;95013.25;5013835;28;20215;-42
2023/06/15 07:13:29;;;;;;;0.40;0.40;;;21.20;58.10;;;21.36;42.31;95015.38;5013217;28;20278;-42
2023/06/15 07:15:57;;;;;;;0.40;0.40;;;21.20;58.20;;;21.36;42.32;95018.88;5013023;28;20295;-43
2023/06/15 07:18:25;;;;;;;0.47;0.47;;;21.20;58.10;;;21.39;42.27;95012.22;5012905;28;20208;-42
2023/06/15 07:20:53;;;;;;;0.40;0.40;;;21.20;58.10;;;21.40;42.68;95011.94;5012842;28;20586;-42
2023/06/15 07:23:25;;;;;;;0.40;0.40;;;21.30;58.20;;;21.42;42.18;95020.50;5012782;28;20238;-42
2023/06/15 07:25:53;;;;;;;0.30;0.30;;;21.30;58.10;;;21.46;42.28;95014.66;5012806;28;20239;-42
2023/06/15 07:28:21;;;;;;;0.30;0.30;;;21.30;58.00;;;21.48;42.31;95017.88;5012711;28;20199;-42
2023/06/15 07:30:49;;;;;;;0.45;0.45;;;21.30;58.00;;;21.50;42.05;95016.53;5012966;28;20201;-43
2023/06/15 07:33:18;;;;;;;0.30;0.30;;;21.30;58.00;;;21.51;42.53;95010.16;5013423;28;20243;-43
2023/06/15 07:35:45;;;;;;;0.40;0.40;;;21.30;58.00;;;21.52;42.19;95019.78;5013015;28;20294;-42
2023/06/15 07:38:14;;;;;;;0.40;0.40;;;21.40;58.10;;;21.55;42.56;95007.78;5012680;28;20206;-42
2023/06/15 07:40:41;;;;;;;0.32;0.32;;;21.40;58.10;;;21.57;42.43;95011.03;5012881;28;20206;-42
2023/06/15 07:43:10;;;;;;;0.40;0.40;;;21.40;58.00;;;21.58;42.07;95013.44;5013252;28;20234;-42
2023/06/15 07:45:37;;;;;;;0.30;0.30;;;21.40;58.10;;;21.61;42.24;95008.63;5012751;28;20201;-42
2023/06/15 07:48:05;;;;;;;0.40;0.40;;;21.40;58.00;;;21.63;42.43;95014.50;5012429;28;20189;-41
2023/06/15 07:50:32;;;;;;;0.30;0.30;;;21.40;58.00;;;21.64;42.39;95013.44;5012457;28;20207;-42
2023/06/15 07:52:59;;;;;;;0.32;0.32;;;21.50;58.10;;;21.66;42.68;95014.00;5012864;28;20236;-42
2023/06/15 07:55:26;;;;;;;0.40;0.40;;;21.50;58.20;;;21.68;42.34;95010.00;5012562;28;20277;-42
2023/06/15 07:57:54;;;;;;;0.50;0.50;;;21.50;58.10;;;21.69;42.26;95014.28;5012595;28;20599;-41
2023/06/15 08:00:22;;;;;;;0.32;0.32;;;21.50;58.10;;;21.70;42.37;95018.56;5027672;28;20218;-42
2023/06/15 08:02:58;;;;;;;0.43;0.43;;;21.50;58.20;;;21.71;42.62;95017.47;5012236;28;20263;-43
2023/06/15 08:05:25;;;;;;;0.38;0.38;;;21.50;58.10;;;21.74;42.22;95016.19;5012246;28;20209;-42
2023/06/15 08:07:53;;;;;;;0.30;0.30;;;21.50;58.00;;;21.75;42.42;95015.91;5013456;28;20510;-42
2023/06/15 08:10:21;;;;;;;0.40;0.40;;;21.60;58.10;;;21.75;42.28;95015.91;5015784;28;20202;-42
2023/06/15 08:12:48;;;;;;;0.30;0.30;;;21.60;58.10;;;21.80;42.16;95025.00;5015977;28;20522;-42
2023/06/15 08:15:16;;;;;;;0.40;0.40;;;21.60;58.00;;;21.80;42.23;95022.31;5015534;28;20207;-41
2023/06/15 08:17:43;;;;;;;0.43;0.43;;;21.60;58.10;;;21.81;42.37;95023.94;5015653;28;20238;-42
2023/06/15 08:20:11;;;;;;;0.30;0.30;;;21.60;58.00;;;21.84;42.24;95028.78;5015892;28;20269;-43
2023/06/15 08:22:38;;;;;;;0.35;0.35;;;21.60;58.00;;;21.84;42.29;95021.56;5015475;28;20242;-42
2023/06/15 08:25:06;;;;;;;0.40;0.40;;;21.70;58.00;;;21.86;42.46;95018.63;5015363;28;20218;-42
2023/06/15 08:27:33;;;;;;;0.30;0.30;;;21.70;58.00;;;21.87;42.18;95018.38;5016598;28;20277;-41
2023/06/15 08:30:01;;;;;;;0.32;0.32;;;21.70;58.00;;;21.90;42.19;95009.03;5015749;28;20198;-42
2023/06/15 08:32:29;;;;;;;0.40;0.40;;;21.70;58.00;;;21.92;42.00;95012.22;5015085;28;20241;-42
2023/06/15 08:34:56;;;;;;;0.40;0.40;;;21.70;58.00;;;21.95;41.77;95010.91;5015351;28;20280;-43
2023/06/15 08:37:23;;;;;;;0.30;0.30;;;21.70;58.00;;;21.96;42.30;95010.66;5015361;28;20230;-42
2023/06/15 08:39:51;;;;;;;0.40;0.40;;;21.70;57.90;;;21.98;41.75;95013.06;5015283;28;20203;-42
2023/06/15 08:42:23;;;;;;;0.40;0.40;;;21.80;58.00;;;22.00;42.33;95013.63;5015731;28;20214;-42
2023/06/15 08:44:54;;;;;;;0.50;0.50;;;21.80;57.90;;;22.00;42.10;95010.94;5015290;28;20209;-41
2023/06/15 08:47:22;;;;;;;0.30;0.30;;;21.80;57.90;;;22.01;42.27;95010.69;5015204;28;20193;-44
2023/06/15 08:49:51;;;;;;;0.30;0.30;;;21.80;57.90;;;22.04;42.36;95014.69;5015380;28;20198;-42
2023/06/15 08:52:21;;;;;;;0.35;0.35;;;21.80;57.80;;;22.04;41.89;95015.47;5030923;28;20645;-43
2023/06/15 08:54:52;;;;;;;0.30;0.30;;;21.80;57.80;;;22.07;41.93;95009.63;5015123;28;20600;-42
2023/06/15 08:57:20;;;;;;;0.30;0.30;;;21.80;57.80;;;22.08;42.04;95010.41;5015180;28;20173;-42
2023/06/15 08:59:51;;;;;;;0.40;0.40;;;21.80;57.80;;;22.11;42.07;95009.91;5015347;28;20195;-44
2023/06/15 09:02:21;;;;;;;0.30;0.30;;;21.90;57.90;;;22.13;41.62;95013.13;5014956;28;20623;-44
2023/06/15 09:04:51;;;;;;;0.40;0.40;;;21.90;57.80;;;22.14;41.76;95008.56;5014833;28;20219;-42
2023/06/15 09:07:20;;;;;;;0.40;0.40;;;21.90;57.70;;;22.17;41.68;95013.41;5014406;28;20215;-44
2023/06/15 09:10:19;;;;;;;0.30;0.30;;;21.90;57.70;;;22.17;42.07;95016.88;5015127;28;20193;-44
2023/06/15 09:12:55;;;;;;;0.40;0.40;;;22.00;57.70;;;22.17;41.83;95011.53;5015096;28;20211;-42
2023/06/15 09:15:27;;;;;;;0.30;0.30;;;22.00;57.60;;;22.20;41.67;95015.53;5015092;28;20250;-42
2023/06/15 09:17:57;;;;;;;0.30;0.30;;;22.00;57.60;;;22.22;41.67;95014.22;5014657;28;20250;-43
2023/06/15 09:20:29;;;;;;;0.30;0.30;;;22.00;57.60;;;22.23;41.41;95007.81;5030249;28;20692;-44
2023/06/15 09:23:02;;;;;;;0.20;0.20;;;22.00;57.50;;;22.26;41.57;95000.34;5014579;28;20332;-43
2023/06/15 09:25:33;;;;;;;0.30;0.30;;;22.00;57.50;;;22.28;41.61;94995.53;5014747;28;20185;-42
2023/06/15 09:28:07;;;;;;;0.30;0.30;;;22.00;57.50;;;22.32;41.53;94993.94;5014595;28;20185;-43
2023/06/15 09:30:40;;;;;;;0.30;0.30;;;22.10;57.60;;;22.33;41.86;94987.53;5014656;28;20193;-42
2023/06/15 09:33:17;;;;;;;0.38;0.38;;;22.10;57.50;;;22.34;41.32;94992.59;5013956;28;20637;-43
2023/06/15 09:35:59;;;;;;;0.30;0.30;;;22.10;57.40;;;22.36;41.66;94993.16;5014405;28;20180;-42
2023/06/15 09:38:48;;;;;;;0.35;0.35;;;22.10;57.30;;;22.39;41.43;94994.50;5014746;28;20196;-41
2023/06/15 09:41:15;;;;;;;0.40;0.40;;;22.10;57.30;;;22.41;41.35;94996.91;5014726;28;20185;-41
2023/06/15 09:43:42;;;;;;;0.30;0.30;;;22.20;57.30;;;22.43;41.37;94994.78;5013455;28;20225;-42
2023/06/15 09:46:19;;;;;;;0.30;0.30;;;22.20;57.20;;;22.44;41.29;94991.84;5014598;28;20636;-44
2023/06/15 09:48:47;;;;;;;0.38;0.38;;;22.20;56.90;;;22.46;41.56;94980.88;5014415;28;20305;-42
2023/06/15 09:51:20;;;;;;;0.30;0.30;;;22.20;57.10;;;22.49;41.22;94988.38;5014482;28;20316;-42
2023/06/15 09:53:48;;;;;;;0.30;0.30;;;22.20;57.00;;;22.49;41.15;94986.50;5014052;28;20181;-41
2023/06/15 09:56:16;;;;;;;0.30;0.30;;;22.20;58.10;;;22.52;40.96;94983.31;5013333;28;20283;-41
2023/06/15 09:59:02;;;;;;;0.50;0.50;;;22.30;56.90;;;22.54;40.97;94978.50;5014384;28;20251;-42
2023/06/15 10:01:33;;;;;;;0.30;0.30;;;22.30;58.10;;;22.57;41.13;94977.19;5014395;28;20261;-42
2023/06/15 10:04:03;;;;;;;0.30;0.30;;;22.30;56.80;;;22.59;40.63;94980.38;5013924;28;20234;-42
2023/06/15 10:06:33;;;;;;;0.30;0.30;;;22.30;58.00;;;22.62;40.70;94985.19;5013487;28;20181;-42
2023/06/15 10:09:06;;;;;;;0.30;0.30;;;22.30;56.70;;;22.63;40.90;94981.44;5013935;28;20193;-42
2023/06/15 10:11:40;;;;;;;0.40;0.40;;;22.40;56.80;;;22.64;40.85;94980.38;5013353;28;20180;-42
2023/06/15 10:14:34;;;;;;;0.38;0.38;;;22.40;56.70;;;22.68;41.02;94986.00;5013651;28;20530;-42
2023/06/15 10:17:04;;;;;;;0.40;0.40;;;22.40;56.60;;;22.69;40.74;94985.72;5013835;28;20200;-43
2023/06/15 10:19:43;;;;;;;0.40;0.40;;;22.40;56.70;;;22.70;40.70;94973.97;5014148;28;20239;-43
2023/06/15 10:22:22;;;;;;;0.50;0.50;;;22.40;56.60;;;22.73;41.08;94977.16;5013021;28;20305;-42
2023/06/15 10:24:50;;;;;;;0.40;0.40;;;22.50;56.60;;;22.74;40.67;94973.41;5013939;28;20251;-42
2023/06/15 10:27:17;;;;;;;0.30;0.30;;;22.50;56.60;;;22.77;40.60;94970.22;5014255;28;20189;-44
2023/06/15 10:29:54;;;;;;;0.40;0.40;;;22.50;56.70;;;22.77;40.44;94968.34;5013051;28;20221;-42